sensor_id;sensor_type;location;lat;lon;timestamp;P1;durP1;ratioP1;P2;durP2;ratioP2
60354;SDS011;46198;51.464;-0.066;2023-09-08T00:01:14;40.28;;;27.70;;
60354;SDS011;46198;51.464;-0.066;2023-09-08T00:03:42;37.53;;;26.33;;
60354;SDS011;46198;51.464;-0.066;2023-09-08T00:06:11;36.05;;;24.92;;
60354;SDS011;46198;51.464;-0.066;2023-09-08T00:08:39;41.42;;;26.67;;
60354;SDS011;46198;51.464;-0.066;2023-09-08T00:11:09;35.10;;;25.23;;
60354;SDS011;46198;51.464;-0.066;2023-09-08T00:13:38;34.58;;;25.52;;
60354;SDS011;46198;51.464;-0.066;2023-09-08T00:16:07;36.72;;;24.58;;
60354;SDS011;46198;51.464;-0.066;2023-09-08T00:18:37;37.33;;;25.25;;
60354;SDS011;46198;51.464;-0.066;2023-09-08T00:21:05;43.30;;;29.13;;
60354;SDS011;46198;51.464;-0.066;2023-09-08T00:23:33;42.92;;;29.77;;
60354;SDS011;46198;51.464;-0.066;2023-09-08T00:26:02;39.70;;;29.42;;
60354;SDS011;46198;51.464;-0.066;2023-09-08T00:28:32;40.58;;;26.75;;
60354;SDS011;46198;51.464;-0.066;2023-09-08T00:31:00;40.53;;;25.90;;
60354;SDS011;46198;51.464;-0.066;2023-09-08T00:33:32;39.38;;;25.48;;
60354;SDS011;46198;51.464;-0.066;2023-09-08T00:36:03;40.20;;;25.92;;
60354;SDS011;46198;51.464;-0.066;2023-09-08T00:38:33;33.85;;;25.52;;
60354;SDS011;46198;51.464;-0.066;2023-09-08T00:41:02;39.65;;;25.30;;
60354;SDS011;46198;51.464;-0.066;2023-09-08T00:43:35;37.22;;;25.08;;
60354;SDS011;46198;51.464;-0.066;2023-09-08T00:46:03;37.05;;;26.63;;
60354;SDS011;46198;51.464;-0.066;2023-09-08T00:48:32;34.28;;;25.45;;
60354;SDS011;46198;51.464;-0.066;2023-09-08T00:51:02;33.80;;;24.87;;
60354;SDS011;46198;51.464;-0.066;2023-09-08T00:53:32;32.78;;;24.42;;
60354;SDS011;46198;51.464;-0.066;2023-09-08T00:56:00;31.80;;;23.92;;
60354;SDS011;46198;51.464;-0.066;2023-09-08T00:58:29;33.30;;;23.40;;
60354;SDS011;46198;51.464;-0.066;2023-09-08T01:00:59;31.77;;;22.27;;
60354;SDS011;46198;51.464;-0.066;2023-09-08T01:03:29;29.73;;;21.65;;
60354;SDS011;46198;51.464;-0.066;2023-09-08T01:06:00;27.33;;;20.30;;
60354;SDS011;46198;51.464;-0.066;2023-09-08T01:11:29;27.10;;;19.23;;
60354;SDS011;46198;51.464;-0.066;2023-09-08T01:13:58;23.20;;;18.02;;
60354;SDS011;46198;51.464;-0.066;2023-09-08T01:16:30;21.95;;;17.30;;
60354;SDS011;46198;51.464;-0.066;2023-09-08T01:23:39;24.15;;;17.42;;
60354;SDS011;46198;51.464;-0.066;2023-09-08T01:26:25;24.05;;;17.15;;
60354;SDS011;46198;51.464;-0.066;2023-09-08T01:31:53;21.90;;;16.00;;
60354;SDS011;46198;51.464;-0.066;2023-09-08T01:34:22;22.73;;;16.38;;
60354;SDS011;46198;51.464;-0.066;2023-09-08T01:36:51;21.77;;;16.35;;
60354;SDS011;46198;51.464;-0.066;2023-09-08T01:39:21;22.08;;;16.23;;
60354;SDS011;46198;51.464;-0.066;2023-09-08T01:41:52;22.20;;;15.93;;
60354;SDS011;46198;51.464;-0.066;2023-09-08T01:44:21;22.23;;;16.42;;
60354;SDS011;46198;51.464;-0.066;2023-09-08T01:46:49;17.85;;;15.10;;
60354;SDS011;46198;51.464;-0.066;2023-09-08T01:49:23;19.70;;;14.40;;
60354;SDS011;46198;51.464;-0.066;2023-09-08T01:51:52;20.73;;;15.25;;
60354;SDS011;46198;51.464;-0.066;2023-09-08T01:54:20;21.15;;;14.88;;
60354;SDS011;46198;51.464;-0.066;2023-09-08T01:56:48;22.77;;;14.30;;
60354;SDS011;46198;51.464;-0.066;2023-09-08T01:59:19;20.45;;;14.98;;
60354;SDS011;46198;51.464;-0.066;2023-09-08T02:01:47;21.15;;;14.20;;
60354;SDS011;46198;51.464;-0.066;2023-09-08T02:04:15;16.33;;;13.30;;
60354;SDS011;46198;51.464;-0.066;2023-09-08T02:06:43;17.23;;;13.20;;
60354;SDS011;46198;51.464;-0.066;2023-09-08T02:12:30;18.75;;;13.73;;
60354;SDS011;46198;51.464;-0.066;2023-09-08T02:14:59;16.10;;;13.40;;
60354;SDS011;46198;51.464;-0.066;2023-09-08T02:17:29;18.23;;;13.13;;
60354;SDS011;46198;51.464;-0.066;2023-09-08T02:19:57;18.55;;;13.65;;
60354;SDS011;46198;51.464;-0.066;2023-09-08T02:22:26;17.38;;;13.00;;
60354;SDS011;46198;51.464;-0.066;2023-09-08T02:24:54;14.63;;;12.30;;
60354;SDS011;46198;51.464;-0.066;2023-09-08T02:27:24;16.13;;;12.10;;
60354;SDS011;46198;51.464;-0.066;2023-09-08T02:29:53;13.10;;;11.27;;
60354;SDS011;46198;51.464;-0.066;2023-09-08T02:32:23;14.63;;;11.55;;
60354;SDS011;46198;51.464;-0.066;2023-09-08T02:34:52;12.57;;;10.80;;
60354;SDS011;46198;51.464;-0.066;2023-09-08T02:37:20;15.10;;;11.25;;
60354;SDS011;46198;51.464;-0.066;2023-09-08T02:39:49;11.98;;;10.50;;
60354;SDS011;46198;51.464;-0.066;2023-09-08T02:46:43;13.55;;;10.60;;
60354;SDS011;46198;51.464;-0.066;2023-09-08T02:49:13;12.75;;;9.98;;
60354;SDS011;46198;51.464;-0.066;2023-09-08T02:51:41;15.60;;;10.35;;
60354;SDS011;46198;51.464;-0.066;2023-09-08T02:54:10;12.93;;;10.02;;
60354;SDS011;46198;51.464;-0.066;2023-09-08T02:56:38;11.38;;;9.77;;
60354;SDS011;46198;51.464;-0.066;2023-09-08T02:59:07;15.60;;;9.90;;
60354;SDS011;46198;51.464;-0.066;2023-09-08T03:01:36;13.43;;;10.25;;
60354;SDS011;46198;51.464;-0.066;2023-09-08T03:04:05;15.98;;;10.40;;
60354;SDS011;46198;51.464;-0.066;2023-09-08T03:06:35;11.60;;;9.20;;
60354;SDS011;46198;51.464;-0.066;2023-09-08T03:09:03;12.27;;;9.98;;
60354;SDS011;46198;51.464;-0.066;2023-09-08T03:11:32;14.48;;;10.07;;
60354;SDS011;46198;51.464;-0.066;2023-09-08T03:14:00;11.25;;;9.90;;
60354;SDS011;46198;51.464;-0.066;2023-09-08T03:16:29;12.18;;;9.75;;
60354;SDS011;46198;51.464;-0.066;2023-09-08T03:19:03;14.98;;;10.25;;
60354;SDS011;46198;51.464;-0.066;2023-09-08T03:21:31;10.98;;;9.65;;
60354;SDS011;46198;51.464;-0.066;2023-09-08T03:27:20;11.32;;;9.70;;
60354;SDS011;46198;51.464;-0.066;2023-09-08T03:29:49;12.25;;;9.57;;
60354;SDS011;46198;51.464;-0.066;2023-09-08T03:32:20;12.35;;;10.05;;
60354;SDS011;46198;51.464;-0.066;2023-09-08T03:34:49;12.00;;;9.27;;
60354;SDS011;46198;51.464;-0.066;2023-09-08T03:37:17;10.25;;;8.68;;
60354;SDS011;46198;51.464;-0.066;2023-09-08T03:39:48;9.88;;;8.80;;
60354;SDS011;46198;51.464;-0.066;2023-09-08T03:46:25;10.90;;;9.00;;
60354;SDS011;46198;51.464;-0.066;2023-09-08T03:48:53;10.38;;;8.50;;
60354;SDS011;46198;51.464;-0.066;2023-09-08T03:51:27;13.10;;;9.23;;
60354;SDS011;46198;51.464;-0.066;2023-09-08T03:53:56;10.45;;;8.95;;
60354;SDS011;46198;51.464;-0.066;2023-09-08T03:56:24;10.57;;;8.60;;
60354;SDS011;46198;51.464;-0.066;2023-09-08T03:58:56;12.77;;;9.27;;
60354;SDS011;46198;51.464;-0.066;2023-09-08T04:01:26;12.93;;;8.63;;
60354;SDS011;46198;51.464;-0.066;2023-09-08T04:03:55;11.10;;;8.43;;
60354;SDS011;46198;51.464;-0.066;2023-09-08T04:06:23;9.90;;;8.15;;
60354;SDS011;46198;51.464;-0.066;2023-09-08T04:08:55;10.00;;;8.70;;
60354;SDS011;46198;51.464;-0.066;2023-09-08T04:11:23;9.13;;;8.18;;
60354;SDS011;46198;51.464;-0.066;2023-09-08T04:13:52;11.00;;;7.63;;
60354;SDS011;46198;51.464;-0.066;2023-09-08T04:16:21;8.48;;;7.57;;
60354;SDS011;46198;51.464;-0.066;2023-09-08T04:18:51;9.52;;;7.60;;
60354;SDS011;46198;51.464;-0.066;2023-09-08T04:21:22;9.93;;;7.35;;
60354;SDS011;46198;51.464;-0.066;2023-09-08T04:23:50;9.30;;;7.43;;
60354;SDS011;46198;51.464;-0.066;2023-09-08T04:26:19;10.13;;;7.90;;
60354;SDS011;46198;51.464;-0.066;2023-09-08T04:28:47;9.20;;;7.03;;
60354;SDS011;46198;51.464;-0.066;2023-09-08T04:31:18;9.70;;;7.15;;
60354;SDS011;46198;51.464;-0.066;2023-09-08T04:36:18;8.85;;;7.15;;
60354;SDS011;46198;51.464;-0.066;2023-09-08T04:38:46;8.90;;;7.13;;
60354;SDS011;46198;51.464;-0.066;2023-09-08T04:41:15;7.40;;;6.45;;
60354;SDS011;46198;51.464;-0.066;2023-09-08T04:43:47;8.45;;;6.53;;
60354;SDS011;46198;51.464;-0.066;2023-09-08T04:46:15;9.57;;;6.82;;
60354;SDS011;46198;51.464;-0.066;2023-09-08T04:48:44;8.25;;;6.03;;
60354;SDS011;46198;51.464;-0.066;2023-09-08T04:51:13;8.05;;;6.20;;
60354;SDS011;46198;51.464;-0.066;2023-09-08T04:53:42;9.63;;;7.03;;
60354;SDS011;46198;51.464;-0.066;2023-09-08T04:56:14;8.45;;;6.05;;
60354;SDS011;46198;51.464;-0.066;2023-09-08T04:58:45;7.28;;;6.07;;
60354;SDS011;46198;51.464;-0.066;2023-09-08T05:01:13;8.02;;;6.22;;
60354;SDS011;46198;51.464;-0.066;2023-09-08T05:03:41;10.32;;;6.88;;
60354;SDS011;46198;51.464;-0.066;2023-09-08T05:06:10;7.65;;;5.70;;
60354;SDS011;46198;51.464;-0.066;2023-09-08T05:08:40;6.50;;;5.65;;
60354;SDS011;46198;51.464;-0.066;2023-09-08T05:13:40;7.93;;;5.90;;
60354;SDS011;46198;51.464;-0.066;2023-09-08T05:16:09;8.60;;;5.68;;
60354;SDS011;46198;51.464;-0.066;2023-09-08T05:18:44;8.02;;;6.43;;
60354;SDS011;46198;51.464;-0.066;2023-09-08T05:21:12;8.07;;;6.03;;
60354;SDS011;46198;51.464;-0.066;2023-09-08T05:23:42;8.50;;;6.22;;
60354;SDS011;46198;51.464;-0.066;2023-09-08T05:26:14;8.60;;;5.85;;
60354;SDS011;46198;51.464;-0.066;2023-09-08T05:28:43;7.57;;;5.60;;
60354;SDS011;46198;51.464;-0.066;2023-09-08T05:31:12;8.85;;;5.53;;
60354;SDS011;46198;51.464;-0.066;2023-09-08T05:33:40;6.47;;;5.10;;
60354;SDS011;46198;51.464;-0.066;2023-09-08T05:36:10;6.93;;;5.38;;
60354;SDS011;46198;51.464;-0.066;2023-09-08T05:38:42;7.13;;;5.82;;
60354;SDS011;46198;51.464;-0.066;2023-09-08T05:41:12;7.63;;;5.60;;
60354;SDS011;46198;51.464;-0.066;2023-09-08T05:43:42;5.97;;;5.38;;
60354;SDS011;46198;51.464;-0.066;2023-09-08T05:46:11;8.52;;;5.28;;
60354;SDS011;46198;51.464;-0.066;2023-09-08T05:48:40;9.85;;;5.35;;
60354;SDS011;46198;51.464;-0.066;2023-09-08T05:51:12;7.45;;;5.93;;
60354;SDS011;46198;51.464;-0.066;2023-09-08T05:53:42;7.00;;;5.50;;
60354;SDS011;46198;51.464;-0.066;2023-09-08T05:56:10;9.27;;;6.22;;
60354;SDS011;46198;51.464;-0.066;2023-09-08T06:01:11;9.32;;;6.20;;
60354;SDS011;46198;51.464;-0.066;2023-09-08T06:03:39;12.23;;;6.82;;
60354;SDS011;46198;51.464;-0.066;2023-09-08T06:06:08;14.25;;;9.30;;
60354;SDS011;46198;51.464;-0.066;2023-09-08T06:08:36;16.95;;;8.48;;
60354;SDS011;46198;51.464;-0.066;2023-09-08T06:11:05;15.07;;;9.05;;
60354;SDS011;46198;51.464;-0.066;2023-09-08T06:13:34;13.27;;;9.40;;
60354;SDS011;46198;51.464;-0.066;2023-09-08T06:16:05;17.35;;;11.25;;
60354;SDS011;46198;51.464;-0.066;2023-09-08T06:18:35;17.27;;;10.88;;
60354;SDS011;46198;51.464;-0.066;2023-09-08T06:21:11;17.58;;;10.70;;
60354;SDS011;46198;51.464;-0.066;2023-09-08T06:23:40;18.13;;;11.85;;
60354;SDS011;46198;51.464;-0.066;2023-09-08T06:26:09;23.85;;;13.60;;
60354;SDS011;46198;51.464;-0.066;2023-09-08T06:28:38;22.38;;;14.07;;
60354;SDS011;46198;51.464;-0.066;2023-09-08T06:31:12;27.50;;;16.70;;
60354;SDS011;46198;51.464;-0.066;2023-09-08T06:33:43;29.25;;;16.92;;
60354;SDS011;46198;51.464;-0.066;2023-09-08T06:36:13;26.42;;;15.43;;
60354;SDS011;46198;51.464;-0.066;2023-09-08T06:38:42;24.00;;;14.25;;
60354;SDS011;46198;51.464;-0.066;2023-09-08T06:41:10;23.20;;;13.48;;
60354;SDS011;46198;51.464;-0.066;2023-09-08T06:43:41;22.05;;;12.82;;
60354;SDS011;46198;51.464;-0.066;2023-09-08T06:46:21;14.98;;;10.52;;
60354;SDS011;46198;51.464;-0.066;2023-09-08T06:48:49;20.58;;;10.77;;
60354;SDS011;46198;51.464;-0.066;2023-09-08T06:51:18;18.58;;;10.85;;
60354;SDS011;46198;51.464;-0.066;2023-09-08T06:57:30;37.60;;;21.83;;
60354;SDS011;46198;51.464;-0.066;2023-09-08T06:59:59;46.78;;;24.80;;
60354;SDS011;46198;51.464;-0.066;2023-09-08T07:02:29;45.55;;;26.80;;
60354;SDS011;46198;51.464;-0.066;2023-09-08T07:04:57;46.53;;;24.08;;
60354;SDS011;46198;51.464;-0.066;2023-09-08T07:07:26;36.38;;;19.90;;
60354;SDS011;46198;51.464;-0.066;2023-09-08T07:09:54;27.05;;;17.48;;
60354;SDS011;46198;51.464;-0.066;2023-09-08T07:12:23;16.95;;;11.60;;
60354;SDS011;46198;51.464;-0.066;2023-09-08T07:14:51;15.70;;;10.00;;
60354;SDS011;46198;51.464;-0.066;2023-09-08T07:17:20;16.38;;;10.13;;
60354;SDS011;46198;51.464;-0.066;2023-09-08T07:19:52;13.88;;;8.50;;
60354;SDS011;46198;51.464;-0.066;2023-09-08T07:22:21;10.10;;;6.65;;
60354;SDS011;46198;51.464;-0.066;2023-09-08T07:24:49;10.52;;;6.95;;
60354;SDS011;46198;51.464;-0.066;2023-09-08T07:27:17;9.43;;;6.75;;
60354;SDS011;46198;51.464;-0.066;2023-09-08T07:29:47;7.70;;;6.20;;
60354;SDS011;46198;51.464;-0.066;2023-09-08T07:32:16;9.80;;;6.65;;
60354;SDS011;46198;51.464;-0.066;2023-09-08T07:34:46;8.05;;;5.85;;
60354;SDS011;46198;51.464;-0.066;2023-09-08T07:37:23;8.77;;;6.32;;
60354;SDS011;46198;51.464;-0.066;2023-09-08T07:39:52;9.07;;;6.18;;
60354;SDS011;46198;51.464;-0.066;2023-09-08T07:42:20;11.52;;;6.80;;
60354;SDS011;46198;51.464;-0.066;2023-09-08T07:44:50;9.10;;;6.90;;
60354;SDS011;46198;51.464;-0.066;2023-09-08T07:47:18;11.30;;;7.20;;
60354;SDS011;46198;51.464;-0.066;2023-09-08T07:49:47;8.90;;;6.50;;
60354;SDS011;46198;51.464;-0.066;2023-09-08T07:52:16;9.27;;;6.70;;
60354;SDS011;46198;51.464;-0.066;2023-09-08T07:54:45;15.55;;;8.80;;
60354;SDS011;46198;51.464;-0.066;2023-09-08T07:57:14;12.90;;;8.73;;
60354;SDS011;46198;51.464;-0.066;2023-09-08T07:59:42;40.80;;;23.65;;
60354;SDS011;46198;51.464;-0.066;2023-09-08T08:02:10;49.40;;;27.88;;
60354;SDS011;46198;51.464;-0.066;2023-09-08T08:04:38;58.13;;;34.33;;
60354;SDS011;46198;51.464;-0.066;2023-09-08T08:07:07;91.25;;;48.72;;
60354;SDS011;46198;51.464;-0.066;2023-09-08T08:09:35;86.38;;;47.58;;
60354;SDS011;46198;51.464;-0.066;2023-09-08T08:12:05;74.20;;;43.88;;
60354;SDS011;46198;51.464;-0.066;2023-09-08T08:14:33;79.50;;;44.95;;
60354;SDS011;46198;51.464;-0.066;2023-09-08T08:17:01;70.95;;;40.17;;
60354;SDS011;46198;51.464;-0.066;2023-09-08T08:19:30;67.10;;;39.53;;
60354;SDS011;46198;51.464;-0.066;2023-09-08T08:21:58;74.95;;;40.50;;
60354;SDS011;46198;51.464;-0.066;2023-09-08T08:24:27;86.00;;;48.08;;
60354;SDS011;46198;51.464;-0.066;2023-09-08T08:26:55;87.35;;;47.60;;
60354;SDS011;46198;51.464;-0.066;2023-09-08T08:29:25;92.93;;;50.25;;
60354;SDS011;46198;51.464;-0.066;2023-09-08T08:31:53;101.70;;;54.50;;
60354;SDS011;46198;51.464;-0.066;2023-09-08T08:34:21;108.07;;;57.13;;
60354;SDS011;46198;51.464;-0.066;2023-09-08T08:36:49;101.60;;;53.97;;
60354;SDS011;46198;51.464;-0.066;2023-09-08T08:39:18;89.82;;;51.20;;
60354;SDS011;46198;51.464;-0.066;2023-09-08T08:41:46;88.43;;;51.28;;
60354;SDS011;46198;51.464;-0.066;2023-09-08T08:44:15;94.75;;;56.67;;
60354;SDS011;46198;51.464;-0.066;2023-09-08T08:46:46;93.30;;;50.63;;
60354;SDS011;46198;51.464;-0.066;2023-09-08T08:49:15;111.03;;;60.38;;
60354;SDS011;46198;51.464;-0.066;2023-09-08T08:51:44;113.63;;;62.05;;
60354;SDS011;46198;51.464;-0.066;2023-09-08T08:54:13;92.40;;;49.55;;
60354;SDS011;46198;51.464;-0.066;2023-09-08T08:56:43;79.40;;;42.70;;
60354;SDS011;46198;51.464;-0.066;2023-09-08T08:59:11;67.35;;;39.65;;
60354;SDS011;46198;51.464;-0.066;2023-09-08T09:01:41;74.55;;;43.88;;
60354;SDS011;46198;51.464;-0.066;2023-09-08T09:04:11;53.33;;;32.63;;
60354;SDS011;46198;51.464;-0.066;2023-09-08T09:06:41;61.53;;;37.33;;
60354;SDS011;46198;51.464;-0.066;2023-09-08T09:09:10;61.05;;;33.33;;
60354;SDS011;46198;51.464;-0.066;2023-09-08T09:11:39;75.40;;;45.58;;
60354;SDS011;46198;51.464;-0.066;2023-09-08T09:14:08;78.53;;;50.33;;
60354;SDS011;46198;51.464;-0.066;2023-09-08T09:16:38;101.55;;;59.15;;
60354;SDS011;46198;51.464;-0.066;2023-09-08T09:19:08;110.65;;;66.03;;
60354;SDS011;46198;51.464;-0.066;2023-09-08T09:21:43;115.65;;;73.13;;
60354;SDS011;46198;51.464;-0.066;2023-09-08T09:24:13;101.35;;;63.53;;
60354;SDS011;46198;51.464;-0.066;2023-09-08T09:26:46;51.92;;;33.13;;
60354;SDS011;46198;51.464;-0.066;2023-09-08T09:29:19;80.07;;;50.15;;
60354;SDS011;46198;51.464;-0.066;2023-09-08T09:31:51;95.38;;;59.40;;
60354;SDS011;46198;51.464;-0.066;2023-09-08T09:34:21;99.15;;;56.85;;
60354;SDS011;46198;51.464;-0.066;2023-09-08T09:36:51;65.47;;;40.85;;
60354;SDS011;46198;51.464;-0.066;2023-09-08T09:39:20;75.28;;;43.53;;
60354;SDS011;46198;51.464;-0.066;2023-09-08T09:41:52;36.03;;;23.90;;
60354;SDS011;46198;51.464;-0.066;2023-09-08T09:44:21;47.15;;;31.67;;
60354;SDS011;46198;51.464;-0.066;2023-09-08T09:46:51;45.95;;;29.02;;
60354;SDS011;46198;51.464;-0.066;2023-09-08T09:49:20;56.60;;;33.72;;
60354;SDS011;46198;51.464;-0.066;2023-09-08T09:51:48;37.47;;;25.17;;
60354;SDS011;46198;51.464;-0.066;2023-09-08T09:54:21;27.23;;;15.43;;
60354;SDS011;46198;51.464;-0.066;2023-09-08T09:56:49;16.42;;;10.15;;
60354;SDS011;46198;51.464;-0.066;2023-09-08T09:59:18;9.20;;;8.07;;
60354;SDS011;46198;51.464;-0.066;2023-09-08T10:01:47;14.00;;;8.60;;
60354;SDS011;46198;51.464;-0.066;2023-09-08T10:04:15;10.55;;;7.53;;
60354;SDS011;46198;51.464;-0.066;2023-09-08T10:06:45;10.82;;;8.02;;
60354;SDS011;46198;51.464;-0.066;2023-09-08T10:09:16;12.13;;;7.32;;
60354;SDS011;46198;51.464;-0.066;2023-09-08T10:11:47;25.25;;;15.38;;
60354;SDS011;46198;51.464;-0.066;2023-09-08T10:14:17;21.20;;;12.98;;
60354;SDS011;46198;51.464;-0.066;2023-09-08T10:16:46;29.23;;;17.92;;
60354;SDS011;46198;51.464;-0.066;2023-09-08T10:19:22;28.27;;;16.48;;
60354;SDS011;46198;51.464;-0.066;2023-09-08T10:21:51;32.72;;;19.60;;
60354;SDS011;46198;51.464;-0.066;2023-09-08T10:24:27;66.22;;;34.53;;
60354;SDS011;46198;51.464;-0.066;2023-09-08T10:26:58;88.32;;;50.75;;
60354;SDS011;46198;51.464;-0.066;2023-09-08T10:29:32;105.05;;;54.05;;
60354;SDS011;46198;51.464;-0.066;2023-09-08T10:35:19;87.82;;;46.33;;
60354;SDS011;46198;51.464;-0.066;2023-09-08T10:37:47;70.68;;;37.63;;
60354;SDS011;46198;51.464;-0.066;2023-09-08T10:40:23;50.03;;;31.48;;
60354;SDS011;46198;51.464;-0.066;2023-09-08T10:43:07;60.63;;;35.73;;
60354;SDS011;46198;51.464;-0.066;2023-09-08T10:45:36;60.05;;;34.72;;
60354;SDS011;46198;51.464;-0.066;2023-09-08T10:48:06;47.10;;;26.13;;
60354;SDS011;46198;51.464;-0.066;2023-09-08T10:50:35;49.25;;;28.15;;
60354;SDS011;46198;51.464;-0.066;2023-09-08T10:53:09;71.82;;;38.30;;
60354;SDS011;46198;51.464;-0.066;2023-09-08T10:55:43;75.85;;;43.35;;
60354;SDS011;46198;51.464;-0.066;2023-09-08T10:58:32;65.75;;;37.45;;
60354;SDS011;46198;51.464;-0.066;2023-09-08T11:01:03;59.63;;;34.10;;
60354;SDS011;46198;51.464;-0.066;2023-09-08T11:06:18;53.05;;;29.83;;
60354;SDS011;46198;51.464;-0.066;2023-09-08T11:08:49;55.85;;;31.08;;
60354;SDS011;46198;51.464;-0.066;2023-09-08T11:11:24;39.92;;;23.38;;
60354;SDS011;46198;51.464;-0.066;2023-09-08T11:16:20;42.03;;;22.40;;
60354;SDS011;46198;51.464;-0.066;2023-09-08T11:18:56;36.05;;;19.45;;
60354;SDS011;46198;51.464;-0.066;2023-09-08T11:21:24;22.77;;;14.20;;
60354;SDS011;46198;51.464;-0.066;2023-09-08T11:23:53;21.85;;;13.10;;
60354;SDS011;46198;51.464;-0.066;2023-09-08T11:26:23;13.32;;;7.85;;
60354;SDS011;46198;51.464;-0.066;2023-09-08T11:28:53;10.65;;;6.75;;
60354;SDS011;46198;51.464;-0.066;2023-09-08T11:31:24;10.10;;;6.63;;
60354;SDS011;46198;51.464;-0.066;2023-09-08T11:33:54;14.95;;;8.15;;
60354;SDS011;46198;51.464;-0.066;2023-09-08T11:36:23;15.77;;;9.05;;
60354;SDS011;46198;51.464;-0.066;2023-09-08T11:38:52;14.57;;;8.70;;
60354;SDS011;46198;51.464;-0.066;2023-09-08T11:41:20;15.47;;;7.97;;
60354;SDS011;46198;51.464;-0.066;2023-09-08T11:43:52;31.77;;;17.30;;
60354;SDS011;46198;51.464;-0.066;2023-09-08T11:46:20;29.23;;;14.55;;
60354;SDS011;46198;51.464;-0.066;2023-09-08T11:48:49;15.93;;;8.23;;
60354;SDS011;46198;51.464;-0.066;2023-09-08T11:51:22;11.65;;;8.05;;
60354;SDS011;46198;51.464;-0.066;2023-09-08T11:53:50;13.02;;;8.00;;
60354;SDS011;46198;51.464;-0.066;2023-09-08T11:56:19;11.38;;;6.60;;
60354;SDS011;46198;51.464;-0.066;2023-09-08T11:58:48;10.23;;;7.10;;
60354;SDS011;46198;51.464;-0.066;2023-09-08T12:01:17;15.18;;;9.02;;
60354;SDS011;46198;51.464;-0.066;2023-09-08T12:03:52;16.60;;;9.00;;
60354;SDS011;46198;51.464;-0.066;2023-09-08T12:06:23;11.38;;;6.63;;
60354;SDS011;46198;51.464;-0.066;2023-09-08T12:08:52;19.95;;;11.60;;
60354;SDS011;46198;51.464;-0.066;2023-09-08T12:11:20;15.15;;;10.05;;
60354;SDS011;46198;51.464;-0.066;2023-09-08T12:17:58;18.02;;;12.05;;
60354;SDS011;46198;51.464;-0.066;2023-09-08T12:20:27;12.95;;;8.50;;
60354;SDS011;46198;51.464;-0.066;2023-09-08T12:22:57;10.77;;;6.65;;
60354;SDS011;46198;51.464;-0.066;2023-09-08T12:25:27;8.13;;;6.13;;
60354;SDS011;46198;51.464;-0.066;2023-09-08T12:27:58;7.32;;;5.80;;
60354;SDS011;46198;51.464;-0.066;2023-09-08T12:30:27;10.00;;;7.05;;
60354;SDS011;46198;51.464;-0.066;2023-09-08T12:33:01;9.88;;;5.90;;
60354;SDS011;46198;51.464;-0.066;2023-09-08T12:35:29;7.95;;;6.05;;
60354;SDS011;46198;51.464;-0.066;2023-09-08T12:37:59;18.95;;;10.48;;
60354;SDS011;46198;51.464;-0.066;2023-09-08T12:42:57;10.68;;;6.93;;
60354;SDS011;46198;51.464;-0.066;2023-09-08T12:45:37;6.53;;;5.80;;
60354;SDS011;46198;51.464;-0.066;2023-09-08T12:48:07;6.03;;;5.38;;
60354;SDS011;46198;51.464;-0.066;2023-09-08T12:50:35;6.85;;;5.53;;
60354;SDS011;46198;51.464;-0.066;2023-09-08T12:53:04;8.98;;;6.25;;
60354;SDS011;46198;51.464;-0.066;2023-09-08T12:55:32;11.35;;;8.60;;
60354;SDS011;46198;51.464;-0.066;2023-09-08T12:58:01;15.35;;;9.10;;
60354;SDS011;46198;51.464;-0.066;2023-09-08T13:00:29;14.18;;;8.70;;
60354;SDS011;46198;51.464;-0.066;2023-09-08T13:02:57;10.43;;;7.07;;
60354;SDS011;46198;51.464;-0.066;2023-09-08T13:05:27;11.13;;;7.97;;
60354;SDS011;46198;51.464;-0.066;2023-09-08T13:07:56;8.50;;;6.25;;
60354;SDS011;46198;51.464;-0.066;2023-09-08T13:10:24;14.23;;;7.95;;
60354;SDS011;46198;51.464;-0.066;2023-09-08T13:12:52;5.85;;;5.28;;
60354;SDS011;46198;51.464;-0.066;2023-09-08T13:15:20;6.18;;;5.47;;
60354;SDS011;46198;51.464;-0.066;2023-09-08T13:17:48;9.45;;;5.50;;
60354;SDS011;46198;51.464;-0.066;2023-09-08T13:20:18;6.38;;;5.47;;
60354;SDS011;46198;51.464;-0.066;2023-09-08T13:22:47;7.25;;;5.50;;
60354;SDS011;46198;51.464;-0.066;2023-09-08T13:25:16;7.40;;;6.63;;
60354;SDS011;46198;51.464;-0.066;2023-09-08T13:27:46;8.18;;;6.65;;
60354;SDS011;46198;51.464;-0.066;2023-09-08T13:30:15;6.35;;;5.78;;
60354;SDS011;46198;51.464;-0.066;2023-09-08T13:32:45;7.97;;;4.90;;
60354;SDS011;46198;51.464;-0.066;2023-09-08T13:35:14;9.68;;;6.03;;
60354;SDS011;46198;51.464;-0.066;2023-09-08T13:37:42;9.15;;;5.97;;
60354;SDS011;46198;51.464;-0.066;2023-09-08T13:40:12;6.90;;;5.22;;
60354;SDS011;46198;51.464;-0.066;2023-09-08T13:46:49;7.82;;;5.97;;
60354;SDS011;46198;51.464;-0.066;2023-09-08T13:49:18;8.23;;;5.75;;
60354;SDS011;46198;51.464;-0.066;2023-09-08T13:51:46;7.78;;;5.68;;
60354;SDS011;46198;51.464;-0.066;2023-09-08T13:54:18;15.90;;;8.70;;
60354;SDS011;46198;51.464;-0.066;2023-09-08T13:56:58;7.07;;;5.88;;
60354;SDS011;46198;51.464;-0.066;2023-09-08T13:59:28;7.22;;;6.45;;
60354;SDS011;46198;51.464;-0.066;2023-09-08T14:02:02;13.27;;;7.78;;
60354;SDS011;46198;51.464;-0.066;2023-09-08T14:04:34;7.65;;;6.28;;
60354;SDS011;46198;51.464;-0.066;2023-09-08T14:07:05;10.88;;;7.28;;
60354;SDS011;46198;51.464;-0.066;2023-09-08T14:09:43;10.50;;;7.32;;
60354;SDS011;46198;51.464;-0.066;2023-09-08T14:12:23;6.85;;;6.15;;
60354;SDS011;46198;51.464;-0.066;2023-09-08T14:15:01;9.70;;;7.20;;
60354;SDS011;46198;51.464;-0.066;2023-09-08T14:17:29;9.50;;;6.10;;
60354;SDS011;46198;51.464;-0.066;2023-09-08T14:19:58;13.35;;;8.82;;
60354;SDS011;46198;51.464;-0.066;2023-09-08T14:22:26;16.60;;;10.75;;
60354;SDS011;46198;51.464;-0.066;2023-09-08T14:24:54;11.40;;;8.10;;
60354;SDS011;46198;51.464;-0.066;2023-09-08T14:27:24;8.02;;;7.22;;
60354;SDS011;46198;51.464;-0.066;2023-09-08T14:33:58;9.52;;;6.75;;
60354;SDS011;46198;51.464;-0.066;2023-09-08T14:36:26;10.70;;;7.03;;
60354;SDS011;46198;51.464;-0.066;2023-09-08T14:38:54;12.32;;;7.93;;
60354;SDS011;46198;51.464;-0.066;2023-09-08T14:41:23;7.55;;;5.68;;
60354;SDS011;46198;51.464;-0.066;2023-09-08T14:43:53;7.47;;;6.22;;
60354;SDS011;46198;51.464;-0.066;2023-09-08T14:46:21;6.45;;;5.78;;
60354;SDS011;46198;51.464;-0.066;2023-09-08T14:48:49;10.52;;;6.47;;
60354;SDS011;46198;51.464;-0.066;2023-09-08T14:51:18;10.18;;;8.27;;
60354;SDS011;46198;51.464;-0.066;2023-09-08T14:53:46;13.85;;;9.10;;
60354;SDS011;46198;51.464;-0.066;2023-09-08T14:56:14;12.55;;;7.30;;
60354;SDS011;46198;51.464;-0.066;2023-09-08T14:58:43;7.40;;;5.63;;
60354;SDS011;46198;51.464;-0.066;2023-09-08T15:01:12;6.45;;;5.13;;
60354;SDS011;46198;51.464;-0.066;2023-09-08T15:03:41;6.75;;;4.88;;
60354;SDS011;46198;51.464;-0.066;2023-09-08T15:06:09;8.45;;;4.95;;
60354;SDS011;46198;51.464;-0.066;2023-09-08T15:08:39;9.10;;;6.85;;
60354;SDS011;46198;51.464;-0.066;2023-09-08T15:11:09;12.02;;;7.65;;
60354;SDS011;46198;51.464;-0.066;2023-09-08T15:13:37;12.40;;;7.50;;
60354;SDS011;46198;51.464;-0.066;2023-09-08T15:16:06;11.52;;;7.68;;
60354;SDS011;46198;51.464;-0.066;2023-09-08T15:18:35;10.15;;;6.43;;
60354;SDS011;46198;51.464;-0.066;2023-09-08T15:21:04;9.13;;;6.88;;
60354;SDS011;46198;51.464;-0.066;2023-09-08T15:23:32;9.35;;;6.70;;
60354;SDS011;46198;51.464;-0.066;2023-09-08T15:26:02;12.73;;;7.45;;
60354;SDS011;46198;51.464;-0.066;2023-09-08T15:28:30;9.15;;;6.88;;
60354;SDS011;46198;51.464;-0.066;2023-09-08T15:30:59;7.93;;;6.18;;
60354;SDS011;46198;51.464;-0.066;2023-09-08T15:33:28;9.43;;;6.50;;